Home > Products > Valid Products > TAF

000
FTUS44 KBRO 261120
TAFMFE
TAF
KMFE 261120Z 2612/2712 VRB03KT 4SM BR OVC020
     FM261400 16008KT P6SM BKN020
     FM261800 15013G18KT P6SM SCT040
     FM270300 13012KT P6SM BKN015=



000
FTUS44 KBRO 261120
TAFBRO
TAF
KBRO 261120Z 2612/2712 17008KT 4SM BR OVC013
     FM261400 16010KT P6SM BKN020
     FM261800 14013G18KT P6SM SCT040
     FM270200 14008KT P6SM BKN015=



000
FTUS44 KBRO 261120
TAFHRL
TAF
KHRL 261120Z 2612/2712 VRB03KT 2SM BR OVC020
     FM261400 16010KT P6SM BKN020
     FM261800 15013G18KT P6SM SCT040
     FM270200 13010KT P6SM BKN015=



000
FTUS44 KBRO 260524
TAFBRO
TAF
KBRO 260524Z 2606/2706 VRB03KT 3SM BR BKN005 OVC015
      TEMPO 2607/2611 1SM BR
     FM261400 15007KT P6SM BKN020
     FM261800 14013G18KT P6SM SCT040
     FM270200 15010KT 6SM BR BKN020=



000
FTUS44 KBRO 260524
TAFHRL
TAF
KHRL 260524Z 2606/2706 VRB03KT 1/4SM FG OVC015
      TEMPO 2607/2611 3SM BR
     FM261400 16007KT P6SM BKN020
     FM261800 15013G18KT P6SM SCT040
     FM270200 16010KT 6SM BR BKN020=



000
FTUS44 KBRO 260524
TAFMFE
TAF
KMFE 260524Z 2606/2706 VRB03KT 6SM BR SKC
      TEMPO 2608/2612 1SM BR OVC015
     FM261400 16007KT P6SM BKN020
     FM261800 15013G18KT P6SM SCT040
     FM270300 16010KT 6SM BR BKN020=



000
FTUS44 KBRO 252320
TAFMFE
TAF
KMFE 252320Z 2600/2624 07008KT 5SM HZ BKN040
     FM260300 10005KT 5SM BR BKN015
     FM260800 10003KT 5SM BR BKN008
     FM261400 15003KT 5SM BR BKN012
     FM261600 17011KT P6SM SCT040=



000
FTUS44 KBRO 252320
TAFHRL
TAF
KHRL 252320Z 2600/2624 04012KT P6SM BKN022
     FM260300 15003KT 5SM BR BKN015
     FM260900 15004KT 5SM BR BKN008
     FM261400 15003KT 5SM BR BKN012
     FM261600 17010KT P6SM SCT040=



000
FTUS44 KBRO 252320
TAFBRO
TAF
KBRO 252320Z 2600/2624 06011KT P6SM BKN025
     FM260400 15003KT 5SM BR BKN012
     FM261000 15003KT 5SM BR BKN008
     FM261400 15004KT 5SM BR BKN015
     FM261600 17010KT P6SM SCT040=



000
FTUS44 KBRO 252320
TAFHRL
TAF
KHRL 252320Z 2600/2624 04012KT P6SM BKN022
     FM260300 15003KT 5SM BR BKN015
     FM260900 15004KT 5SM BR BKN008
     FM261400 15003KT 5SM BR BKN012
     FM261600 17010KT P6SM SCT040=



000
FTUS44 KBRO 252320
TAFMFE
TAF
KMFE 252320Z 2600/2624 07008KT 5SM HZ BKN040
     FM260300 10005KT 5SM BR BKN015
     FM260800 10003KT 5SM BR BKN008
     FM261400 15003KT 5SM BR BKN012
     FM261600 17011KT P6SM SCT040=



000
FTUS44 KBRO 252320
TAFBRO
TAF
KBRO 252320Z 2600/2624 06011KT P6SM BKN025
     FM260400 15003KT 5SM BR BKN012
     FM261000 15003KT 5SM BR BKN008
     FM261400 15004KT 5SM BR BKN015
     FM261600 17010KT P6SM SCT040=



000
FTUS44 KBRO 251738
TAFHRL
TAF
KHRL 251738Z 2518/2618 18008KT P6SM SCT030
     FM252100 10010KT P6SM SCT040
     FM260300 15003KT 5SM BR BKN015
     FM261600 17010KT P6SM SCT040=



000
FTUS44 KBRO 251738
TAFBRO
TAF
KBRO 251738Z 2518/2618 18008KT P6SM SCT040
     FM252100 15011KT P6SM SCT040
     FM260400 15003KT 5SM BR BKN015
     FM261600 17010KT P6SM SCT040=



000
FTUS44 KBRO 251738
TAFMFE
TAF
KMFE 251738Z 2518/2618 34008KT 5SM HZ BKN040
     FM260000 07007KT P6SM BKN030
     FM260300 10005KT 5SM BR BKN015=



000
FTUS44 KBRO 251128
TAFHRL
TAF
KHRL 251128Z 2512/2612 14008KT 4SM BR OVC014
     FM251400 17012KT P6SM BKN020
     FM251800 10010KT P6SM BKN040
     FM260300 07003KT 5SM BR BKN015=



000
FTUS44 KBRO 251128
TAFMFE
TAF
KMFE 251128Z 2512/2612 15007KT 2SM BR OVC016
     FM251500 17008KT P6SM BKN020
     FM251800 34008KT P6SM BKN040
     FM260000 07007KT P6SM BKN030
     FM260300 10005KT 5SM BR BKN015=



000
FTUS44 KBRO 251128
TAFBRO
TAF
KBRO 251128Z 2512/2612 12008KT 5SM BR OVC012
     FM251400 16013KT P6SM BKN020
     FM251700 14008KT P6SM BKN040
     FM260300 10003KT 5SM BR BKN015=



000
FTUS44 KBRO 251128
TAFHRL
TAF
KHRL 251128Z 2512/2612 14008KT 4SM BR OVC014
     FM251400 17012KT P6SM BKN020
     FM251800 10010KT P6SM BKN040
     FM260300 07003KT 5SM BR BKN015=



000
FTUS44 KBRO 251128
TAFBRO
TAF
KBRO 251128Z 2512/2612 12008KT 5SM BR OVC012
     FM251400 16013KT P6SM BKN020
     FM251700 14008KT P6SM BKN040
     FM260300 10003KT 5SM BR BKN015=



000
FTUS44 KBRO 251128
TAFMFE
TAF
KMFE 251128Z 2512/2612 15007KT 2SM BR OVC016
     FM251500 17008KT P6SM BKN020
     FM251800 34008KT P6SM BKN040
     FM260000 07007KT P6SM BKN030
     FM260300 10005KT 5SM BR BKN015=



000
FTUS44 KBRO 250648 AAA
TAFMFE
TAF AMD
KMFE 250648Z 2507/2606 13008KT P6SM BKN110
     FM250900 12006KT 4SM BR OVC009
     FM251200 13008KT 2SM BR OVC007
     FM251500 14010KT 4SM HZ OVC022
     FM252100 12009KT 4SM HZ SCT250=



000
FTUS44 KBRO 250648 AAA
TAFMFE
TAF AMD
KMFE 250648Z 2507/2606 13008KT P6SM BKN110
     FM250900 12006KT 4SM BR OVC009
     FM251200 13008KT 2SM BR OVC007
     FM251500 14010KT 4SM HZ OVC022
     FM252100 12009KT 4SM HZ SCT250=



000
FTUS44 KBRO 250547
TAFHRL
TAF
KHRL 250547Z 2506/2606 13006KT P6SM VCTS FEW060CB SCT070 BKN120
      TEMPO 2506/2508 VRB18G26KT 3SM +TSRA BKN012CB
     FM250900 12008KT 5SM BR BKN010
     FM251200 13010KT 2SM BR OVC009
     FM251500 14010KT P6SM OVC012
     FM252100 14010KT 4SM HZ BKN250=



000
FTUS44 KBRO 250547
TAFBRO
TAF
KBRO 250547Z 2506/2606 29005KT P6SM VCTS BKN035CB
      TEMPO 2506/2508 VRB20G30KT 3SM +TSRA BKN025CB
     FM250800 16006KT 5SM BR BKN010
     FM251000 12010KT 4SM BR OVC006
     FM251400 14010KT P6SM OVC009
     FM252100 14011KT 5SM HZ BKN250=



000
FTUS44 KBRO 250547
TAFMFE
TAF
KMFE 250547Z 2506/2606 13020G30KT P6SM BKN110
      TEMPO 2506/2509 -RA BKN012
     FM250900 12006KT 4SM BR OVC009
     FM251200 13008KT 2SM BR OVC007
     FM251500 14010KT 4SM HZ OVC022
     FM252100 12009KT 4SM HZ SCT250=



000
FTUS44 KBRO 250238 AAA
TAFMFE
TAF AMD
KMFE 250238Z 2503/2524 15009KT P6SM BKN013
      TEMPO 2503/2506 VRB28G40KT 2SM +TSRA BKN012CB
     FM250800 14008KT 6SM BR VCSH BKN008
     FM251500 14010KT P6SM OVC022=



000
FTUS44 KBRO 250129 AAA
TAFBRO
TAF AMD
KBRO 250129Z 2501/2524 16014KT P6SM SCT025
      TEMPO 2504/2507 VRB18G35KT 2SM +TSRA BKN012CB
     FM250700 16010KT 5SM BR BKN010
     FM251400 14010KT P6SM OVC021=



000
FTUS44 KBRO 242325
TAFMFE
TAF
KMFE 242325Z 2500/2524 14017G23KT P6SM BKN025 OVC150
     FM250200 16008KT 6SM BR BKN012
      TEMPO 2502/2505 VRB23G40KT 2SM +TSRA BKN012CB
     FM250800 14008KT 6SM BR VCSH BKN008
     FM251500 14010KT P6SM OVC022=



000
FTUS44 KBRO 242325
TAFHRL
TAF
KHRL 242325Z 2500/2524 17017G25KT P6SM BKN028
     FM250200 16008KT 6SM BR BKN012
      TEMPO 2504/2507 VRB20G37KT 2SM +TSRA BKN012CB
     FM250900 15005KT 5SM BR BKN008
     FM251500 14010KT P6SM OVC022=



000
FTUS44 KBRO 242325
TAFBRO
TAF
KBRO 242325Z 2500/2524 16019G27KT P6SM BKN018
     FM250200 15008KT P6SM BKN008
      TEMPO 2504/2507 VRB18G35KT 2SM +TSRA BKN012CB
     FM250700 16010KT 5SM BR BKN010
     FM251400 14010KT P6SM OVC021=



000
FTUS44 KBRO 242259 AAA
TAFBRO
TAF AMD
KBRO 242259Z 2423/2518 16019G27KT P6SM BKN018
     FM250500 16010KT 6SM BR BKN010=



000
FTUS44 KBRO 241723
TAFMFE
TAF
KMFE 241723Z 2418/2518 15012G18KT P6SM BKN025 OVC150
     FM250500 14008KT 6SM BR VCSH BKN010=



000
FTUS44 KBRO 241723
TAFHRL
TAF
KHRL 241723Z 2418/2518 17017G25KT P6SM SCT020 OVC150
     FM250500 16008KT 6SM BR BKN010=



000
FTUS44 KBRO 241723
TAFBRO
TAF
KBRO 241723Z 2418/2518 16019G27KT P6SM SCT020 OVC150
     FM250500 16010KT 6SM BR BKN010=



000
FTUS44 KBRO 241202 AAA
TAFBRO
TAF AMD
KBRO 241202Z 2412/2512 13015KT P6SM OVC006
      TEMPO 2412/2414 FEW006 OVC150
     FM241600 14013G18KT P6SM BKN015
     FM241800 16017G25KT P6SM SCT020 BKN040
     FM250500 16010KT 6SM BR BKN010=



000
FTUS44 KBRO 241202 AAA
TAFBRO
TAF AMD
KBRO 241202Z 2412/2512 13015KT P6SM OVC006
      TEMPO 2412/2414 FEW006 OVC150
     FM241600 14013G18KT P6SM BKN015
     FM241800 16017G25KT P6SM SCT020 BKN040
     FM250500 16010KT 6SM BR BKN010=



000
FTUS44 KBRO 241120
TAFMFE
TAF
KMFE 241120Z 2412/2512 12010KT 5SM BR SCT030
     FM241600 15013G18KT P6SM BKN015
     FM241800 15017G25KT P6SM SCT020 BKN040
     FM250500 14008KT 6SM BR BKN010=



000
FTUS44 KBRO 241120
TAFBRO
TAF
KBRO 241120Z 2412/2512 13015KT 6SM BR OVC004
     FM241600 14013G18KT P6SM BKN015
     FM241800 16017G25KT P6SM SCT020 BKN040
     FM250500 16010KT 6SM BR BKN010=



000
FTUS44 KBRO 241120
TAFBRO
TAF
KBRO 241120Z 2412/2512 13015KT 6SM BR OVC004
     FM241600 14013G18KT P6SM BKN015
     FM241800 16017G25KT P6SM SCT020 BKN040
     FM250500 16010KT 6SM BR BKN010=



000
FTUS44 KBRO 241120
TAFHRL
TAF
KHRL 241120Z 2412/2512 15012KT P6SM OVC007
     FM241600 15013G18KT P6SM BKN015
     FM241800 17017G25KT P6SM SCT020 BKN040
     FM250500 16008KT 6SM BR BKN010=



000
FTUS44 KBRO 241120
TAFMFE
TAF
KMFE 241120Z 2412/2512 12010KT 5SM BR SCT030
     FM241600 15013G18KT P6SM BKN015
     FM241800 15017G25KT P6SM SCT020 BKN040
     FM250500 14008KT 6SM BR BKN010=



000
FTUS44 KBRO 241120
TAFHRL
TAF
KHRL 241120Z 2412/2512 15012KT P6SM OVC007
     FM241600 15013G18KT P6SM BKN015
     FM241800 17017G25KT P6SM SCT020 BKN040
     FM250500 16008KT 6SM BR BKN010=



000
FTUS44 KBRO 240520
TAFBRO
TAF
KBRO 240520Z 2406/2506 12008KT 6SM BR OVC007
     FM241600 14013G18KT P6SM BKN015
     FM241800 16018G25KT P6SM SCT020 BKN040
     FM250500 16013G18KT 6SM BR BKN015=



000
FTUS44 KBRO 240520
TAFMFE
TAF
KMFE 240520Z 2406/2506 11010KT 6SM BR OVC010
     FM240700 VRB30G40KT 3SM +TSRA BR OVC015CB
     FM240900 12008KT P6SM OVC010
     FM241600 15013G18KT P6SM BKN015
     FM241800 15017G25KT P6SM SCT020 BKN040
     FM250500 10007KT 6SM BR BKN016=



000
FTUS44 KBRO 240520
TAFHRL
TAF
KHRL 240520Z 2406/2506 11008KT 6SM BR OVC006
     FM241600 15013G18KT P6SM BKN015
     FM241800 17018G25KT P6SM SCT020 BKN040
     FM250500 16010G15KT 6SM BR BKN015=



000
FTUS44 KBRO 240246 AAA
TAFHRL
TAF AMD
KHRL 240246Z 2403/2424 11008KT 5SM BR OVC008
     FM241600 15013G19KT P6SM BKN015
     FM241900 16014G20KT P6SM SCT020 BKN040=



000
FTUS44 KBRO 240246 AAA
TAFHRL
TAF AMD
KHRL 240246Z 2403/2424 11008KT 5SM BR OVC008
     FM241600 15013G19KT P6SM BKN015
     FM241900 16014G20KT P6SM SCT020 BKN040=



000
FTUS44 KBRO 240246 AAB
TAFBRO
TAF AMD
KBRO 240246Z 2403/2424 11010KT 5SM BR OVC006
     FM241600 15014G20KT P6SM BKN015
     FM241900 16014G20KT P6SM SCT020 BKN040=



000
FTUS44 KBRO 240241 AAA
TAFMFE
TAF AMD
KMFE 240241Z 2403/2424 12009KT P6SM VCTS FEW020CB SCT080
      TEMPO 2403/2406 4SM TSRA BR BKN012CB
     FM240600 12009KT 5SM BR OVC008
     FM241600 15012KT P6SM BKN015
     FM241800 15014G20KT P6SM SCT020 BKN040=



000
FTUS44 KBRO 240241 AAA
TAFMFE
TAF AMD
KMFE 240241Z 2403/2424 12009KT P6SM VCTS FEW020CB SCT080
      TEMPO 2403/2406 4SM TSRA BR BKN012CB
     FM240600 12009KT 5SM BR OVC008
     FM241600 15012KT P6SM BKN015
     FM241800 15014G20KT P6SM SCT020 BKN040=



000
FTUS44 KBRO 232325
TAFBRO
TAF
KBRO 232325Z 2400/2424 11010KT P6SM FEW015 SCT050
     FM240200 12009KT P6SM BKN015 BKN100
     FM240400 12009KT 5SM BR OVC008
     FM241600 15014G20KT P6SM BKN015
     FM241900 16014G20KT P6SM SCT020 BKN040=



000
FTUS44 KBRO 232325
TAFBRO
TAF
KBRO 232325Z 2400/2424 11010KT P6SM FEW015 SCT050
     FM240200 12009KT P6SM BKN015 BKN100
     FM240400 12009KT 5SM BR OVC008
     FM241600 15014G20KT P6SM BKN015
     FM241900 16014G20KT P6SM SCT020 BKN040=



000
FTUS44 KBRO 232325
TAFHRL
TAF
KHRL 232325Z 2400/2424 10011KT P6SM SCT020 BKN040
     FM240200 12009KT P6SM BKN015 BKN100
     FM240400 12009KT 5SM BR OVC008
     FM241600 15013G19KT P6SM BKN015
     FM241900 16014G20KT P6SM SCT020 BKN040=



000
FTUS44 KBRO 232325
TAFMFE
TAF
KMFE 232325Z 2400/2424 12011KT P6SM FEW020 SCT050
     FM240200 12009KT P6SM BKN015 BKN100
     FM240400 12009KT 5SM BR OVC008
     FM241600 15012KT P6SM BKN015
     FM241800 15014G20KT P6SM SCT020 BKN040=



000
FTUS44 KBRO 232325
TAFHRL
TAF
KHRL 232325Z 2400/2424 10011KT P6SM SCT020 BKN040
     FM240200 12009KT P6SM BKN015 BKN100
     FM240400 12009KT 5SM BR OVC008
     FM241600 15013G19KT P6SM BKN015
     FM241900 16014G20KT P6SM SCT020 BKN040=



000
FTUS44 KBRO 232325
TAFMFE
TAF
KMFE 232325Z 2400/2424 12011KT P6SM FEW020 SCT050
     FM240200 12009KT P6SM BKN015 BKN100
     FM240400 12009KT 5SM BR OVC008
     FM241600 15012KT P6SM BKN015
     FM241800 15014G20KT P6SM SCT020 BKN040=



000
FTUS44 KBRO 231731
TAFHRL
TAF
KHRL 231731Z 2318/2418 13010KT P6SM BKN020 OVC035
     FM232100 14006KT P6SM SCT020 OVC035
     FM240200 12009KT P6SM BKN015 BKN100
     FM240400 12009KT 5SM BR OVC008=



000
FTUS44 KBRO 231731
TAFMFE
TAF
KMFE 231731Z 2318/2418 13010KT P6SM BKN025 BKN040
     FM232100 14010KT P6SM SCT025 BKN040
     FM240300 12009KT P6SM BKN015 BKN100
     FM240500 12009KT 5SM BR OVC008=



000
FTUS44 KBRO 231731
TAFBRO
TAF
KBRO 231731Z 2318/2418 13012KT P6SM BKN020 OVC040
     FM232100 13010KT P6SM SCT020 OVC040
     FM240100 12009KT P6SM BKN015 BKN100
     FM240400 12009KT 5SM BR OVC008=



    US Dept of Commerce
    National Oceanic and Atmospheric Administration
    National Weather Service
    1325 East West Highway
    Silver Spring, MD 20910
    Page Author: NWS Internet Services Team
Disclaimer
Information Quality
Credits
Glossary
Privacy Policy
Freedom of Information Act (FOIA)
About Us
Career Opportunities